createdAt,value
2016-02-22T07:28:45.135Z,720.15
2016-02-22T07:29:01.150Z,720.29
2016-02-22T07:29:45.871Z,720.17
2016-02-22T07:30:00.262Z,720.84
2016-02-22T07:30:44.875Z,720.61
2016-02-22T07:30:58.453Z,719.89
2016-02-22T07:31:12.439Z,720.35
2016-02-22T07:31:26.174Z,720.09
2016-02-22T07:31:40.189Z,719.96
2016-02-22T07:31:54.205Z,720.34
2016-02-22T07:32:22.238Z,720.34
2016-02-22T07:32:50.426Z,720.4
2016-02-22T07:33:03.785Z,720.41
2016-02-22T07:33:20.305Z,720.15
2016-02-22T07:33:35.117Z,720.62
2016-02-22T07:34:03.070Z,720.9
2016-02-22T07:34:30.822Z,720.7
2016-02-22T07:34:47.369Z,719.94
2016-02-22T07:35:00.744Z,720.46
2016-02-22T07:35:15.122Z,720.23
2016-02-22T07:35:28.904Z,720.55
2016-02-22T07:35:45.747Z,720.67
2016-02-22T07:36:13.468Z,720.37
2016-02-22T07:36:27.327Z,720.64
2016-02-22T07:36:44.171Z,720.76
2016-02-22T07:36:57.968Z,720.49
2016-02-22T07:37:11.452Z,719.58
2016-02-22T07:37:39.330Z,720.35
2016-02-22T07:37:52.659Z,720.52
2016-02-22T07:38:06.440Z,720.23
2016-02-22T07:38:22.787Z,719.91
2016-02-22T07:38:36.427Z,720.85
2016-02-22T07:38:53.083Z,719.7
2016-02-22T07:39:10.083Z,719.71
2016-02-22T07:39:26.726Z,720.2
2016-02-22T07:39:40.085Z,719.82
2016-02-22T07:39:54.054Z,720.25
2016-02-22T07:40:09.320Z,719.92
2016-02-22T07:40:56.651Z,719.96
2016-02-22T07:41:13.513Z,720.2
2016-02-22T07:41:56.232Z,720.24
2016-02-22T07:42:26.829Z,720.54
2016-02-22T07:42:40.188Z,720.55
2016-02-22T07:42:56.798Z,720.14
2016-02-22T07:43:10.626Z,720.23
2016-02-22T07:43:24.003Z,720.4
2016-02-22T07:43:37.581Z,720.35
2016-02-22T07:44:05.284Z,720.16
2016-02-22T07:44:18.662Z,720.11
2016-02-22T07:44:32.021Z,720.49
2016-02-22T07:44:59.599Z,720.23
2016-02-22T07:45:13.727Z,719.87
2016-02-22T07:45:30.352Z,720.27
2016-02-22T07:45:43.743Z,720.32
2016-02-22T07:46:11.462Z,719.96
2016-02-22T07:46:28.573Z,719.96
2016-02-22T07:46:44.964Z,720.25
2016-02-22T07:46:58.370Z,720.37
2016-02-22T07:47:43.467Z,720.59
2016-02-22T07:48:00.607Z,720.43
2016-02-22T07:48:14.439Z,720.16
2016-02-22T07:48:28.064Z,720.15
2016-02-22T07:48:41.673Z,720.32
2016-02-22T07:49:23.925Z,720.46
2016-02-22T07:50:32.881Z,720.46
2016-02-22T07:51:00.678Z,720.34
2016-02-22T07:51:14.884Z,720.54
2016-02-22T07:51:42.509Z,720.28
2016-02-22T07:51:58.868Z,720.42
2016-02-22T07:52:26.575Z,720.08
2016-02-22T07:52:43.434Z,720.51
2016-02-22T07:53:11.028Z,720.26
2016-02-22T07:53:25.858Z,720.01
2016-02-22T07:53:39.264Z,720.38
2016-02-22T07:53:56.327Z,720.13
2016-02-22T07:54:27.064Z,720.17
2016-02-22T07:55:11.376Z,720.47
2016-02-22T07:55:27.629Z,720.38
2016-02-22T07:55:40.958Z,720.36
2016-02-22T07:55:57.895Z,720.47
2016-02-22T07:56:11.254Z,720.27
2016-02-22T07:56:38.991Z,720.51
2016-02-22T07:57:07.163Z,720.62
2016-02-22T07:57:23.978Z,720.36
2016-02-22T07:57:37.400Z,720.18
2016-02-22T07:58:14.294Z,720.39
2016-02-22T07:59:24.452Z,720.53
2016-02-22T07:59:52.030Z,720.5
2016-02-22T08:00:05.624Z,720.51
2016-02-22T08:00:33.549Z,720.53
2016-02-22T08:00:47.158Z,720.64
2016-02-22T08:01:03.549Z,720.51
2016-02-22T08:01:31.145Z,720.36
2016-02-22T08:01:44.520Z,720.62
2016-02-22T08:01:57.864Z,720.47
2016-02-22T08:02:11.692Z,720.61
2016-02-22T08:02:28.414Z,720.44
2016-02-22T08:02:41.898Z,720.39
2016-02-22T08:02:55.477Z,720.42
2016-02-22T08:03:09.148Z,720.51
2016-02-22T08:03:22.619Z,720.46
2016-02-22T08:03:36.510Z,720.25
2016-02-22T08:03:52.916Z,720.24
2016-02-22T08:04:09.635Z,720.47
2016-02-22T08:04:23.043Z,720.48
2016-02-22T08:04:43.324Z,720.46
2016-02-22T08:04:58.106Z,720.33
2016-02-22T08:05:25.906Z,720.67
2016-02-22T08:05:39.922Z,720.59
2016-02-22T08:05:53.328Z,720.34
2016-02-22T08:06:07.672Z,720.46
2016-02-22T08:06:21.830Z,720.39
2016-02-22T08:06:49.690Z,720.7
2016-02-22T08:07:03.033Z,720.49
2016-02-22T08:07:44.926Z,720.35
2016-02-22T08:07:59.285Z,720.34
2016-02-22T08:08:18.789Z,720.5
2016-02-22T08:08:35.618Z,720.42
2016-02-22T08:08:49.071Z,720.48
2016-02-22T08:09:05.649Z,720.56
2016-02-22T08:09:19.480Z,720.58
2016-02-22T08:09:33.230Z,720.35
2016-02-22T08:09:46.792Z,720.2
2016-02-22T08:10:14.341Z,720.52
2016-02-22T08:10:27.888Z,720.53
2016-02-22T08:10:44.482Z,720.57
2016-02-22T08:10:59.154Z,720.64
2016-02-22T08:11:26.937Z,720.39
2016-02-22T08:11:40.765Z,720.45
2016-02-22T08:11:54.187Z,720.66
2016-02-22T08:12:08.015Z,720.52
2016-02-22T08:12:21.441Z,720.58
2016-02-22T08:12:35.207Z,720.17
2016-02-22T08:13:05.738Z,720.47
2016-02-22T08:13:19.334Z,720.43
2016-02-22T08:13:33.443Z,720.16
2016-02-22T08:13:46.865Z,720.45
2016-02-22T08:14:28.554Z,720.34
2016-02-22T08:14:42.820Z,720.73
2016-02-22T08:14:56.976Z,720.39
2016-02-22T08:15:20.073Z,720.46
2016-02-22T08:15:51.745Z,720.56
2016-02-22T08:16:36.607Z,720.4
2016-02-22T08:16:50.514Z,720.71
2016-02-22T08:17:04.779Z,720.58
2016-02-22T08:17:32.735Z,720.16
2016-02-22T08:17:46.298Z,720.37
2016-02-22T08:17:59.845Z,720.47
2016-02-22T08:18:13.534Z,720.7
2016-02-22T08:18:55.034Z,720.53
2016-02-22T08:19:11.644Z,720.31
2016-02-22T08:19:25.240Z,720.38
2016-02-22T08:19:39.115Z,720.35
2016-02-22T08:19:52.756Z,720.75
2016-02-22T08:20:09.365Z,720.35
2016-02-22T08:20:50.415Z,720.25
2016-02-22T08:21:06.806Z,720.34
2016-02-22T08:21:23.403Z,720.17
2016-02-22T08:22:07.949Z,720.55
2016-02-22T08:22:35.514Z,720.28
2016-02-22T08:22:48.858Z,720.55
2016-02-22T08:23:05.201Z,720.29
2016-02-22T08:23:19.204Z,720.51
2016-02-22T08:24:00.908Z,720.82
2016-02-22T08:24:28.707Z,720.54
2016-02-22T08:24:42.582Z,720.29
2016-02-22T08:24:56.098Z,720.21
2016-02-22T08:25:37.475Z,720.45
2016-02-22T08:26:11.459Z,720.7
2016-02-22T08:26:24.853Z,720.63
2016-02-22T08:26:38.681Z,719.98
2016-02-22T08:26:52.087Z,720.42
2016-02-22T08:27:19.652Z,720.75
2016-02-22T08:28:21.452Z,720.18
2016-02-22T08:28:34.858Z,720.63
2016-02-22T08:28:48.249Z,719.68
2016-02-22T08:29:21.986Z,720.26
2016-02-22T08:29:50.017Z,720.65
2016-02-22T08:30:17.536Z,720.39
2016-02-22T08:30:31.333Z,720.41
2016-02-22T08:30:44.755Z,720.36
2016-02-22T08:30:58.380Z,720.13
2016-02-22T08:31:12.114Z,720.24
2016-02-22T08:32:10.522Z,720.72
2016-02-22T08:32:24.119Z,720.4
2016-02-22T08:32:38.166Z,720.38
2016-02-22T08:32:57.728Z,720.16
2016-02-22T08:33:25.263Z,720.79
2016-02-22T08:33:38.638Z,720.24
2016-02-22T08:34:06.403Z,720.38
2016-02-22T08:34:48.093Z,719.95
2016-02-22T08:35:01.687Z,720.6
2016-02-22T08:35:46.674Z,720.5
2016-02-22T08:36:01.111Z,720.39
2016-02-22T08:36:14.974Z,719.98
2016-02-22T08:36:42.693Z,720.47
2016-02-22T08:36:56.380Z,720.22
2016-02-22T08:37:09.739Z,720.26
2016-02-22T08:37:26.085Z,720.31
2016-02-22T08:37:39.741Z,720.35
2016-02-22T08:37:56.538Z,720.64
2016-02-22T08:38:10.351Z,720.39
2016-02-22T08:38:23.699Z,719.63
2016-02-22T08:38:40.902Z,720.52
2016-02-22T08:38:54.449Z,720.08
2016-02-22T08:39:21.966Z,720
2016-02-22T08:39:49.810Z,720.13
2016-02-22T08:40:06.263Z,720.36
2016-02-22T08:40:19.719Z,720.1
2016-02-22T08:40:34.375Z,720.64
2016-02-22T08:41:01.891Z,720.2
2016-02-22T08:41:32.628Z,720.76
2016-02-22T08:41:46.363Z,719.89
2016-02-22T08:42:03.378Z,720.28
2016-02-22T08:42:16.115Z,719.77
2016-02-22T08:42:32.505Z,720.58
2016-02-22T08:42:49.412Z,720.32
2016-02-22T08:43:16.962Z,720.37
2016-02-22T08:43:30.602Z,720.66
2016-02-22T08:43:44.352Z,720.44
2016-02-22T08:43:57.977Z,720.27
2016-02-22T08:44:25.793Z,719.94
2016-02-22T08:44:42.449Z,720.22
2016-02-22T08:44:55.824Z,720.05
2016-02-22T08:45:12.261Z,720.55
2016-02-22T08:45:25.107Z,720.09
2016-02-22T08:46:51.907Z,720.25
2016-02-22T08:47:05.266Z,720.53
2016-02-22T08:47:32.769Z,720.58
2016-02-22T08:48:00.582Z,720.35
2016-02-22T08:48:14.178Z,720.46
2016-02-22T08:48:27.787Z,720.04
2016-02-22T08:48:44.240Z,720.29
2016-02-22T08:48:58.303Z,719.98
2016-02-22T08:49:12.084Z,719.92
2016-02-22T08:49:27.493Z,719.97
2016-02-22T08:49:44.540Z,720.35
2016-02-22T08:49:58.353Z,720.04
2016-02-22T08:50:12.009Z,720.17
2016-02-22T08:50:25.558Z,720.58
2016-02-22T08:50:41.933Z,720.28
2016-02-22T08:51:09.730Z,719.82
2016-02-22T08:51:23.546Z,720.1
2016-02-22T08:51:49.187Z,720.23
2016-02-22T08:52:02.530Z,720.15
2016-02-22T08:52:16.126Z,720.72
2016-02-22T08:52:43.657Z,720.36
2016-02-22T08:52:57.470Z,720.41
2016-02-22T08:53:10.845Z,720.3
2016-02-22T08:53:38.363Z,720.47
2016-02-22T08:53:52.191Z,720.28
2016-02-22T08:54:08.784Z,719.89
2016-02-22T08:54:22.412Z,719.77
2016-02-22T08:54:35.819Z,720.2
2016-02-22T08:54:49.178Z,720.25
2016-02-22T08:55:02.506Z,720.17
2016-02-22T08:55:15.946Z,720.02
2016-02-22T08:55:29.774Z,719.52
2016-02-22T08:55:43.758Z,720.14
2016-02-22T08:56:30.747Z,720.55
2016-02-22T08:56:44.653Z,720.77
2016-02-22T08:56:58.668Z,720.84
2016-02-22T08:57:15.717Z,720.43
2016-02-22T08:57:29.045Z,719.48
2016-02-22T08:58:27.642Z,719.85
2016-02-22T08:58:41.205Z,719.52
2016-02-22T08:58:54.970Z,720.21
2016-02-22T08:59:08.892Z,719.88
2016-02-22T08:59:22.707Z,720.46
2016-02-22T08:59:50.972Z,720.45
2016-02-22T09:00:04.582Z,720.11
2016-02-22T09:00:18.429Z,720.39
2016-02-22T09:00:32.039Z,720.13
2016-02-22T09:00:45.570Z,719.54
2016-02-22T09:00:58.945Z,720.19
2016-02-22T09:01:43.056Z,720.04
2016-02-22T09:01:57.088Z,719.87
2016-02-22T09:02:11.791Z,720.37
2016-02-22T09:02:25.465Z,720.53
2016-02-22T09:02:42.074Z,720.2
2016-02-22T09:02:55.949Z,720.17
2016-02-22T09:03:09.324Z,720.15
2016-02-22T09:03:37.280Z,719.9
2016-02-22T09:03:50.827Z,720.15
2016-02-22T09:04:18.330Z,719.71
2016-02-22T09:04:31.752Z,720.14
2016-02-22T09:04:45.377Z,720.25
2016-02-22T09:05:02.377Z,719.81
2016-02-22T09:05:18.724Z,719.7
2016-02-22T09:06:00.177Z,720.27
2016-02-22T09:06:28.007Z,720.31
2016-02-22T09:07:09.007Z,720.42
2016-02-22T09:07:25.432Z,720.05
2016-02-22T09:07:39.088Z,720.53
2016-02-22T09:07:52.494Z,720.26
2016-02-22T09:08:05.916Z,720.42
2016-02-22T09:08:19.388Z,720.15
2016-02-22T09:08:32.747Z,720.08
2016-02-22T09:08:46.216Z,720.28
2016-02-22T09:08:59.950Z,719.7
2016-02-22T09:09:41.110Z,720.12
2016-02-22T09:09:54.719Z,720.12
2016-02-22T09:10:11.453Z,720.07
2016-02-22T09:10:28.159Z,719.99
2016-02-22T09:10:45.721Z,720.02
2016-02-22T09:10:59.159Z,720.12
2016-02-22T09:12:08.287Z,720.08
2016-02-22T09:12:25.321Z,720.31
2016-02-22T09:12:42.055Z,720.45
2016-02-22T09:12:55.790Z,720.29
2016-02-22T09:13:12.727Z,720.15
2016-02-22T09:13:26.385Z,720.04
2016-02-22T09:13:39.807Z,720.18
2016-02-22T09:13:54.213Z,720.24
2016-02-22T09:14:10.698Z,720.01
2016-02-22T09:14:24.076Z,720.23
2016-02-22T09:14:38.295Z,720.07
2016-02-22T09:14:52.138Z,720.27
2016-02-22T09:15:05.716Z,720.18
2016-02-22T09:15:34.375Z,719.97
2016-02-22T09:15:48.000Z,720.17
2016-02-22T09:16:01.812Z,720.39
2016-02-22T09:16:18.581Z,719.94
2016-02-22T09:18:04.584Z,719.95
2016-02-22T09:18:18.524Z,720.01
2016-02-22T09:18:32.196Z,719.84
2016-02-22T09:18:45.821Z,720.21
2016-02-22T09:18:59.399Z,720.64
2016-02-22T09:19:12.774Z,720.48
2016-02-22T09:19:43.543Z,720.58
2016-02-22T09:20:25.467Z,720.14
2016-02-22T09:20:38.826Z,720.08
2016-02-22T09:20:52.264Z,720.32
2016-02-22T09:21:06.295Z,719.91
2016-02-22T09:21:19.892Z,720.44
2016-02-22T09:21:47.735Z,720.46
2016-02-22T09:22:15.659Z,720.33
2016-02-22T09:22:32.300Z,720.29
2016-02-22T09:22:46.097Z,720.34
2016-02-22T09:23:00.034Z,720.38
2016-02-22T09:23:16.428Z,720
2016-02-22T09:23:44.131Z,720.24
2016-02-22T09:23:57.647Z,720.31
2016-02-22T09:24:11.553Z,720.12
2016-02-22T09:24:24.900Z,720.14
2016-02-22T09:25:06.587Z,720.29
2016-02-22T09:25:20.370Z,720.17
2016-02-22T09:25:51.339Z,720.33
2016-02-22T09:26:04.714Z,720.17
2016-02-22T09:26:21.123Z,720.34
2016-02-22T09:27:02.827Z,720.04
2016-02-22T09:27:44.564Z,719.96
2016-02-22T09:28:26.254Z,720.25
2016-02-22T09:28:39.848Z,720.53
2016-02-22T09:28:56.708Z,720.39
2016-02-22T09:29:10.504Z,720.06
2016-02-22T09:29:24.366Z,720.24
2016-02-22T09:29:38.147Z,720.23
2016-02-22T09:30:05.710Z,720.04
2016-02-22T09:30:22.369Z,720.18
2016-02-22T09:30:36.306Z,720.02
2016-02-22T09:30:49.916Z,720
2016-02-22T09:31:03.525Z,719.66
2016-02-22T09:31:31.028Z,720.28
2016-02-22T09:32:01.575Z,720.34
2016-02-22T09:32:29.921Z,720.15
2016-02-22T09:32:57.936Z,720.31
2016-02-22T09:33:11.483Z,720.21
2016-02-22T09:33:27.861Z,720.24
2016-02-22T09:33:41.439Z,720.23
2016-02-22T09:33:55.939Z,719.92
2016-02-22T09:34:09.517Z,720.29
2016-02-22T09:34:22.895Z,720.34
2016-02-22T09:34:36.692Z,720.32
2016-02-22T09:34:50.052Z,720.28
2016-02-22T09:35:03.458Z,720.45
2016-02-22T09:35:31.194Z,720.51
2016-02-22T09:35:50.819Z,720.34
2016-02-22T09:36:21.619Z,720.47
2016-02-22T09:36:34.963Z,720.48
2016-02-22T09:37:05.697Z,720.29
2016-02-22T09:37:36.653Z,719.95
2016-02-22T09:37:50.091Z,720.02
2016-02-22T09:38:03.357Z,720.47
2016-02-22T09:38:17.172Z,720.24
2016-02-22T09:38:30.688Z,720.12
2016-02-22T09:39:01.469Z,719.95
2016-02-22T09:39:17.690Z,720.27
2016-02-22T09:39:31.705Z,719.93
2016-02-22T09:39:48.158Z,720.01
2016-02-22T09:40:16.349Z,719.99
2016-02-22T09:40:30.146Z,720.21
2016-02-22T09:40:45.021Z,720.36
2016-02-22T09:40:58.490Z,720.48
2016-02-22T09:41:15.149Z,720.05
2016-02-22T09:41:28.586Z,720.43
2016-02-22T09:41:56.414Z,720.54
2016-02-22T09:42:10.227Z,720.3
2016-02-22T09:42:51.838Z,720.25
2016-02-22T09:43:05.698Z,720.08
2016-02-22T09:43:19.560Z,719.82
2016-02-22T09:43:33.341Z,719.98
2016-02-22T09:43:47.373Z,720.06
2016-02-22T09:44:00.888Z,720.01
2016-02-22T09:44:31.703Z,720.15
2016-02-22T09:44:47.921Z,720.28
2016-02-22T09:45:04.093Z,720.49
2016-02-22T09:45:20.535Z,720.32
2016-02-22T09:45:51.488Z,719.97
2016-02-22T09:46:05.097Z,720.29
2016-02-22T09:46:22.599Z,720.9
2016-02-22T09:46:39.115Z,720.45
2016-02-22T09:46:52.521Z,720.32
2016-02-22T09:47:05.974Z,720.13
2016-02-22T09:48:01.195Z,720.33
2016-02-22T09:48:23.792Z,720.28
2016-02-22T09:48:37.479Z,719.99
2016-02-22T09:48:51.151Z,719.73
2016-02-22T09:49:04.776Z,720.01
2016-02-22T09:49:18.357Z,719.93
2016-02-22T09:49:38.060Z,720.13
2016-02-22T09:49:51.389Z,720.04
2016-02-22T09:50:18.954Z,720.45
2016-02-22T09:50:32.313Z,720.56
2016-02-22T09:51:31.284Z,720.22
2016-02-22T09:51:47.894Z,720.38
2016-02-22T09:52:18.429Z,719.78
2016-02-22T09:52:34.741Z,719.74
2016-02-22T09:52:48.351Z,720.45
2016-02-22T09:53:01.960Z,719.87
2016-02-22T09:53:29.477Z,720.33
2016-02-22T09:53:45.836Z,719.83
2016-02-22T09:53:59.414Z,720.48
2016-02-22T09:54:12.961Z,720.26
2016-02-22T09:54:29.324Z,720.26
2016-02-22T09:54:57.043Z,720.41
2016-02-22T09:55:24.795Z,720.3
2016-02-22T09:55:38.186Z,720.1
2016-02-22T09:55:52.045Z,720.49
2016-02-22T09:56:09.030Z,720.2
2016-02-22T09:56:21.782Z,720.27
2016-02-22T09:56:35.375Z,719.5
2016-02-22T09:56:49.125Z,720.27
2016-02-22T09:57:05.953Z,719.79
2016-02-22T09:57:19.567Z,719.96
2016-02-22T09:57:47.551Z,720.09
2016-02-22T09:58:13.739Z,720.37
2016-02-22T09:58:27.367Z,719.85
2016-02-22T09:58:40.976Z,720.19
2016-02-22T09:58:57.351Z,720.41
2016-02-22T09:59:38.259Z,720.11
2016-02-22T09:59:54.837Z,720.44
2016-02-22T10:00:08.728Z,720.59
2016-02-22T10:00:29.700Z,720.42
2016-02-22T10:00:43.747Z,720.45
2016-02-22T10:01:14.499Z,720.39
2016-02-22T10:01:27.858Z,720.08
2016-02-22T10:01:41.280Z,720.37
2016-02-22T10:01:54.921Z,720.32
2016-02-22T10:02:07.733Z,720.01
2016-02-22T10:02:21.845Z,720.21
2016-02-22T10:02:38.674Z,719.99
2016-02-22T10:02:55.017Z,720.23
2016-02-22T10:03:08.799Z,720.03
2016-02-22T10:03:22.567Z,719.75
2016-02-22T10:03:50.270Z,720.16
2016-02-22T10:04:03.677Z,720.46
2016-02-22T10:04:17.304Z,720.31
2016-02-22T10:05:15.885Z,720.29
2016-02-22T10:05:29.275Z,720.5
2016-02-22T10:05:42.635Z,720.41
2016-02-22T10:05:56.025Z,720.4
2016-02-22T10:06:09.822Z,720.2
2016-02-22T10:06:23.200Z,720.16
2016-02-22T10:06:36.419Z,720.15
2016-02-22T10:06:50.247Z,720.45
2016-02-22T10:07:31.499Z,720.15
2016-02-22T10:07:44.921Z,720.41
2016-02-22T10:07:58.687Z,720.44
2016-02-22T10:08:12.374Z,720.4
2016-02-22T10:08:40.049Z,720.11
2016-02-22T10:09:24.113Z,720
2016-02-22T10:09:52.035Z,720.25
2016-02-22T10:10:19.616Z,720.05
2016-02-22T10:10:47.398Z,719.97
2016-02-22T10:11:31.494Z,719.98
2016-02-22T10:11:47.901Z,719.96
2016-02-22T10:12:01.541Z,720.11
2016-02-22T10:12:46.294Z,719.94
2016-02-22T10:13:03.013Z,720.23
2016-02-22T10:13:16.359Z,720.32
2016-02-22T10:13:44.062Z,720.33
2016-02-22T10:13:57.390Z,720.27
2016-02-22T10:14:11.265Z,720.04
2016-02-22T10:14:25.285Z,719.95
2016-02-22T10:14:38.800Z,720.08
2016-02-22T10:14:55.425Z,719.96
2016-02-22T10:15:08.988Z,719.92
2016-02-22T10:15:36.709Z,720.13
2016-02-22T10:15:50.052Z,720.14
2016-02-22T10:16:03.427Z,719.89
2016-02-22T10:16:17.242Z,720.29
2016-02-22T10:16:31.054Z,719.73
2016-02-22T10:16:44.445Z,720.06
2016-02-22T10:16:58.336Z,720.06
2016-02-22T10:17:26.152Z,720.18
2016-02-22T10:17:46.449Z,720.13
2016-02-22T10:18:03.136Z,720.3
2016-02-22T10:18:16.732Z,720.13
2016-02-22T10:18:30.576Z,720.1
2016-02-22T10:18:58.482Z,720.11
2016-02-22T10:19:42.751Z,720.23
2016-02-22T10:20:10.704Z,720.22
2016-02-22T10:20:24.222Z,719.97
2016-02-22T10:20:51.909Z,720.27
2016-02-22T10:21:05.518Z,720.29
2016-02-22T10:21:33.318Z,720.15
2016-02-22T10:22:14.993Z,720.18
2016-02-22T10:22:28.384Z,720.14
2016-02-22T10:22:41.728Z,720.05
2016-02-22T10:22:55.353Z,720.1
2016-02-22T10:23:09.384Z,720
2016-02-22T10:23:26.574Z,720.19
2016-02-22T10:23:54.277Z,720.26
2016-02-22T10:24:07.637Z,720.17
2016-02-22T10:24:21.061Z,720.15
2016-02-22T10:24:46.733Z,720.02
2016-02-22T10:25:03.092Z,719.95
2016-02-22T10:25:19.486Z,719.94
2016-02-22T10:25:50.001Z,720.05
2016-02-22T10:26:03.548Z,720.06
2016-02-22T10:26:17.317Z,720.11
2016-02-22T10:26:45.285Z,720.04
2016-02-22T10:27:13.395Z,720.12
2016-02-22T10:27:41.162Z,720.03
2016-02-22T10:27:54.600Z,719.98
2016-02-22T10:28:22.837Z,720.04
2016-02-22T10:28:39.462Z,720.2
2016-02-22T10:28:53.556Z,720.18
2016-02-22T10:29:21.074Z,720.07
2016-02-22T10:29:40.667Z,720.22
2016-02-22T10:29:57.386Z,720.22
2016-02-22T10:30:17.327Z,720.29
2016-02-22T10:30:30.874Z,720.15
2016-02-22T10:30:44.827Z,720.19
2016-02-22T10:31:12.374Z,720.25
2016-02-22T10:31:26.236Z,720.34
2016-02-22T10:31:40.064Z,720.16
2016-02-22T10:32:10.611Z,720.19
2016-02-22T10:32:24.208Z,720.18
2016-02-22T10:32:37.833Z,720.08
2016-02-22T10:32:51.176Z,720.09
2016-02-22T10:33:07.567Z,720.07
2016-02-22T10:33:20.975Z,720.09
2016-02-22T10:33:34.413Z,720.1
2016-02-22T10:34:01.928Z,720.03
2016-02-22T10:34:15.541Z,720.05
2016-02-22T10:34:28.916Z,720.08
2016-02-22T10:34:42.697Z,720.13
2016-02-22T10:34:56.088Z,720.02
2016-02-22T10:35:24.278Z,720.19
2016-02-22T10:35:38.231Z,719.98
2016-02-22T10:35:52.075Z,720.03
2016-02-22T10:36:19.640Z,720.1
2016-02-22T10:36:36.186Z,720.13
2016-02-22T10:36:49.686Z,720.13
2016-02-22T10:37:06.296Z,720.06
2016-02-22T10:37:22.893Z,720.17
2016-02-22T10:37:36.486Z,720.11
2016-02-22T10:37:53.299Z,720.1
2016-02-22T10:38:07.596Z,720.06
2016-02-22T10:38:21.458Z,720.1
2016-02-22T10:38:49.208Z,720.13
2016-02-22T10:39:16.977Z,720.12
2016-02-22T10:39:30.711Z,720.16
2016-02-22T10:39:44.055Z,720.1
2016-02-22T10:40:26.026Z,720.16
2016-02-22T10:40:42.838Z,720.1
2016-02-22T10:40:56.760Z,720.04
2016-02-22T10:41:38.357Z,720.1
2016-02-22T10:42:23.218Z,720.19
2016-02-22T10:42:38.218Z,720.09
2016-02-22T10:42:52.140Z,720.04
2016-02-22T10:43:05.671Z,720.1
2016-02-22T10:43:33.205Z,720.27
2016-02-22T10:43:46.674Z,720.08
2016-02-22T10:44:00.471Z,720.22
2016-02-22T10:44:14.455Z,720.11
2016-02-22T10:44:42.521Z,720.36
2016-02-22T10:44:59.271Z,720.1
2016-02-22T10:45:40.743Z,720.11
2016-02-22T10:45:54.149Z,720.05
2016-02-22T10:46:07.758Z,720.06
2016-02-22T10:46:21.151Z,719.96
2016-02-22T10:46:49.120Z,720.11
2016-02-22T10:47:19.935Z,720.27
2016-02-22T10:47:50.466Z,720.04
2016-02-22T10:48:04.263Z,719.97
2016-02-22T10:49:03.282Z,719.99
2016-02-22T10:49:20.534Z,719.94
2016-02-22T10:49:48.487Z,720.1
2016-02-22T10:50:32.568Z,719.95
2016-02-22T10:51:00.459Z,720.11
2016-02-22T10:51:27.993Z,720.28
2016-02-22T10:51:41.649Z,719.86
2016-02-22T10:51:58.040Z,720.01
2016-02-22T10:52:11.399Z,720.19
2016-02-22T10:52:24.980Z,720.21
2016-02-22T10:52:38.715Z,720.45
2016-02-22T10:53:06.215Z,719.99
2016-02-22T10:53:23.107Z,719.64
2016-02-22T10:53:36.982Z,720
2016-02-22T10:54:04.732Z,719.93
2016-02-22T10:55:17.082Z,719.99
2016-02-22T10:55:30.473Z,720.26
2016-02-22T10:56:14.801Z,720.13
2016-02-22T10:57:10.428Z,720.3
2016-02-22T10:57:38.603Z,720
2016-02-22T10:57:51.572Z,719.93
2016-02-22T10:58:05.025Z,719.82
2016-02-22T10:58:18.590Z,719.81
2016-02-22T10:58:32.137Z,719.64
2016-02-22T10:58:59.715Z,720
2016-02-22T10:59:13.496Z,720.16
2016-02-22T10:59:27.140Z,720.19
2016-02-22T10:59:40.999Z,720.14
2016-02-22T10:59:54.984Z,720.03
2016-02-22T11:00:09.062Z,720.25
2016-02-22T11:00:22.486Z,719.91
2016-02-22T11:00:36.017Z,720.14
2016-02-22T11:00:49.861Z,720.11
2016-02-22T11:01:03.517Z,720.21
2016-02-22T11:01:17.067Z,720.02
2016-02-22T11:01:30.473Z,720.11
2016-02-22T11:01:58.004Z,720.24
2016-02-22T11:02:11.567Z,720.19
2016-02-22T11:02:24.991Z,720.02
2016-02-22T11:02:38.553Z,720.22
2016-02-22T11:02:54.756Z,720.16
2016-02-22T11:03:08.381Z,720.2
2016-02-22T11:03:21.994Z,720.16
2016-02-22T11:03:35.838Z,720.21
2016-02-22T11:03:49.853Z,720.25
2016-02-22T11:04:06.494Z,720.23
2016-02-22T11:04:22.887Z,720.19
2016-02-22T11:04:36.278Z,720.2
2016-02-22T11:05:03.981Z,720.19
2016-02-22T11:05:17.609Z,720.15
2016-02-22T11:05:33.953Z,720.06
2016-02-22T11:05:47.719Z,720.15
2016-02-22T11:06:04.172Z,720.03
2016-02-22T11:06:17.767Z,720.15
2016-02-22T11:06:31.127Z,720.1
2016-02-22T11:06:47.564Z,720.02
2016-02-22T11:07:07.189Z,720.05
2016-02-22T11:07:20.786Z,720.25
2016-02-22T11:08:05.880Z,720.21
2016-02-22T11:08:19.210Z,720.16
2016-02-22T11:08:52.882Z,720.12
2016-02-22T11:09:06.491Z,720.11
2016-02-22T11:09:20.072Z,719.84
2016-02-22T11:09:37.041Z,720.11
2016-02-22T11:09:53.416Z,720.16
2016-02-22T11:10:09.822Z,720.28
2016-02-22T11:10:23.669Z,720.05
2016-02-22T11:10:36.982Z,720.04
2016-02-22T11:10:53.638Z,720.24
2016-02-22T11:11:07.278Z,719.82
2016-02-22T11:11:21.077Z,719.63
2016-02-22T11:11:51.890Z,720.14
2016-02-22T11:12:05.452Z,720.33
2016-02-22T11:12:19.002Z,719.91
2016-02-22T11:12:32.612Z,720.04
2016-02-22T11:13:14.315Z,720.16
2016-02-22T11:13:42.099Z,720.02
2016-02-22T11:13:55.896Z,720.14
2016-02-22T11:14:09.505Z,719.94
2016-02-22T11:14:37.102Z,719.96
2016-02-22T11:14:51.055Z,719.99
2016-02-22T11:15:18.635Z,720.02
2016-02-22T11:15:32.307Z,719.96
2016-02-22T11:15:46.120Z,719.8
2016-02-22T11:15:59.135Z,720.01
2016-02-22T11:16:12.323Z,719.86
2016-02-22T11:16:28.748Z,719.96
2016-02-22T11:16:45.341Z,719.96
2016-02-22T11:16:59.029Z,720.04
2016-02-22T11:17:12.591Z,720.03
2016-02-22T11:17:26.156Z,719.98
2016-02-22T11:17:39.531Z,720.09
2016-02-22T11:18:07.062Z,720.1
2016-02-22T11:18:34.629Z,719.93
2016-02-22T11:18:47.972Z,720.13
2016-02-22T11:19:18.709Z,719.96
2016-02-22T11:19:32.584Z,720.19
2016-02-22T11:19:46.131Z,720.08
2016-02-22T11:19:59.115Z,720.2
2016-02-22T11:20:13.459Z,720.15
2016-02-22T11:20:26.884Z,719.93
2016-02-22T11:20:55.040Z,720.13
2016-02-22T11:21:08.430Z,720
2016-02-22T11:21:21.854Z,720.17
2016-02-22T11:21:52.807Z,720.19
2016-02-22T11:22:09.589Z,720.18
2016-02-22T11:22:51.514Z,719.95
2016-02-22T11:23:19.235Z,720.18
2016-02-22T11:23:32.610Z,720.14
2016-02-22T11:24:00.329Z,720.08
2016-02-22T11:24:28.582Z,720.13
2016-02-22T11:24:42.348Z,720.24
2016-02-22T11:24:56.223Z,720.27
2016-02-22T11:25:12.941Z,720.16
2016-02-22T11:25:40.881Z,719.98
2016-02-22T11:25:54.303Z,720.02
2016-02-22T11:26:14.365Z,720.15
2016-02-22T11:26:28.243Z,720.24
2016-02-22T11:27:24.090Z,721.44
2016-02-22T11:27:51.590Z,722.95
2016-02-22T11:28:19.092Z,723.69
2016-02-22T11:28:38.451Z,723.92
2016-02-22T11:28:55.123Z,723.75
2016-02-22T11:29:08.686Z,723.66
2016-02-22T11:29:36.439Z,723.09
2016-02-22T11:30:04.423Z,722.19
2016-02-22T11:30:21.238Z,721.93
2016-02-22T11:30:43.660Z,722.13
2016-02-22T11:31:25.351Z,721.52
2016-02-22T11:31:38.960Z,721.66
2016-02-22T11:31:52.570Z,721.6
2016-02-22T11:32:06.445Z,721.68
2016-02-22T11:32:34.166Z,721.6
2016-02-22T11:32:47.728Z,721.65
2016-02-22T11:33:04.431Z,721.42
2016-02-22T11:33:32.340Z,721.31
2016-02-22T11:33:59.919Z,721.38
2016-02-22T11:34:16.309Z,721.31
2016-02-22T11:34:29.936Z,721.18
2016-02-22T11:34:44.764Z,721.3
2016-02-22T11:34:58.827Z,721.39
2016-02-22T11:35:12.405Z,721.41
2016-02-22T11:35:26.033Z,721.26
2016-02-22T11:35:39.861Z,721.3
2016-02-22T11:36:07.705Z,721.12
2016-02-22T11:36:35.208Z,721.23
2016-02-22T11:36:48.598Z,721.18
2016-02-22T11:37:01.911Z,721.2
2016-02-22T11:37:21.585Z,720.71
2016-02-22T11:37:49.147Z,720.83
2016-02-22T11:38:02.475Z,721.11
2016-02-22T11:38:16.038Z,721.14
2016-02-22T11:38:44.025Z,721.14
2016-02-22T11:39:00.432Z,720.97